sensor_id;sensor_type;location;lat;lon;timestamp;temperature;humidity
68248;SHT30;55064;49.636;12.164;2024-02-26T00:01:24;1.22;90.90
68248;SHT30;55064;49.636;12.164;2024-02-26T00:03:50;1.22;91.18
68248;SHT30;55064;49.636;12.164;2024-02-26T00:06:15;1.25;91.01
68248;SHT30;55064;49.636;12.164;2024-02-26T00:08:40;1.32;90.80
68248;SHT30;55064;49.636;12.164;2024-02-26T00:11:06;1.36;90.59
68248;SHT30;55064;49.636;12.164;2024-02-26T00:13:31;1.35;90.33
68248;SHT30;55064;49.636;12.164;2024-02-26T00:15:56;1.30;90.27
68248;SHT30;55064;49.636;12.164;2024-02-26T00:18:22;1.32;90.27
68248;SHT30;55064;49.636;12.164;2024-02-26T00:20:47;1.24;90.14
68248;SHT30;55064;49.636;12.164;2024-02-26T00:23:15;1.20;90.33
68248;SHT30;55064;49.636;12.164;2024-02-26T00:25:40;1.15;90.52
68248;SHT30;55064;49.636;12.164;2024-02-26T00:28:08;1.13;90.49
68248;SHT30;55064;49.636;12.164;2024-02-26T00:30:33;1.07;90.44
68248;SHT30;55064;49.636;12.164;2024-02-26T00:32:58;1.08;90.32
68248;SHT30;55064;49.636;12.164;2024-02-26T00:35:24;1.04;90.40
68248;SHT30;55064;49.636;12.164;2024-02-26T00:37:49;1.07;90.35
68248;SHT30;55064;49.636;12.164;2024-02-26T00:40:15;1.00;90.46
68248;SHT30;55064;49.636;12.164;2024-02-26T00:42:40;0.97;90.69
68248;SHT30;55064;49.636;12.164;2024-02-26T00:45:10;0.96;90.59
68248;SHT30;55064;49.636;12.164;2024-02-26T00:47:36;0.97;90.93
68248;SHT30;55064;49.636;12.164;2024-02-26T00:50:01;0.96;91.19
68248;SHT30;55064;49.636;12.164;2024-02-26T00:52:27;0.93;91.55
68248;SHT30;55064;49.636;12.164;2024-02-26T00:54:52;1.00;91.46
68248;SHT30;55064;49.636;12.164;2024-02-26T00:57:18;0.94;91.57
68248;SHT30;55064;49.636;12.164;2024-02-26T00:59:43;0.90;91.70
68248;SHT30;55064;49.636;12.164;2024-02-26T01:02:08;0.88;91.52
68248;SHT30;55064;49.636;12.164;2024-02-26T01:04:34;0.90;91.54
68248;SHT30;55064;49.636;12.164;2024-02-26T01:06:59;0.94;91.93
68248;SHT30;55064;49.636;12.164;2024-02-26T01:09:24;0.97;91.96
68248;SHT30;55064;49.636;12.164;2024-02-26T01:11:50;1.00;92.32
68248;SHT30;55064;49.636;12.164;2024-02-26T01:14:15;0.98;92.02
68248;SHT30;55064;49.636;12.164;2024-02-26T01:16:41;1.03;92.07
68248;SHT30;55064;49.636;12.164;2024-02-26T01:19:06;1.04;92.23
68248;SHT30;55064;49.636;12.164;2024-02-26T01:21:31;1.03;92.07
68248;SHT30;55064;49.636;12.164;2024-02-26T01:23:57;0.98;91.88
68248;SHT30;55064;49.636;12.164;2024-02-26T01:26:22;0.96;91.73
68248;SHT30;55064;49.636;12.164;2024-02-26T01:28:48;0.91;91.39
68248;SHT30;55064;49.636;12.164;2024-02-26T01:31:13;0.83;91.51
68248;SHT30;55064;49.636;12.164;2024-02-26T01:33:38;0.76;91.44
68248;SHT30;55064;49.636;12.164;2024-02-26T01:36:04;0.70;91.40
68248;SHT30;55064;49.636;12.164;2024-02-26T01:38:29;0.66;91.40
68248;SHT30;55064;49.636;12.164;2024-02-26T01:40:55;0.67;91.51
68248;SHT30;55064;49.636;12.164;2024-02-26T01:43:20;0.66;91.53
68248;SHT30;55064;49.636;12.164;2024-02-26T01:45:45;0.65;91.75
68248;SHT30;55064;49.636;12.164;2024-02-26T01:48:11;0.63;92.02
68248;SHT30;55064;49.636;12.164;2024-02-26T01:50:36;0.63;92.41
68248;SHT30;55064;49.636;12.164;2024-02-26T01:53:03;0.62;92.18
68248;SHT30;55064;49.636;12.164;2024-02-26T01:55:29;0.60;92.79
68248;SHT30;55064;49.636;12.164;2024-02-26T01:57:54;0.62;92.81
68248;SHT30;55064;49.636;12.164;2024-02-26T02:00:21;0.65;93.08
68248;SHT30;55064;49.636;12.164;2024-02-26T02:02:47;0.66;92.72
68248;SHT30;55064;49.636;12.164;2024-02-26T02:05:15;0.67;92.88
68248;SHT30;55064;49.636;12.164;2024-02-26T02:07:41;0.67;92.99
68248;SHT30;55064;49.636;12.164;2024-02-26T02:10:07;0.70;93.14
68248;SHT30;55064;49.636;12.164;2024-02-26T02:12:33;0.69;92.71
68248;SHT30;55064;49.636;12.164;2024-02-26T02:15:00;0.65;93.08
68248;SHT30;55064;49.636;12.164;2024-02-26T02:17:26;0.59;92.81
68248;SHT30;55064;49.636;12.164;2024-02-26T02:19:52;0.66;93.11
68248;SHT30;55064;49.636;12.164;2024-02-26T02:22:18;0.67;93.10
68248;SHT30;55064;49.636;12.164;2024-02-26T02:24:43;0.60;93.13
68248;SHT30;55064;49.636;12.164;2024-02-26T02:27:08;0.60;93.00
68248;SHT30;55064;49.636;12.164;2024-02-26T02:29:34;0.65;93.13
68248;SHT30;55064;49.636;12.164;2024-02-26T02:32:01;0.62;93.30
68248;SHT30;55064;49.636;12.164;2024-02-26T02:34:27;0.59;93.45
68248;SHT30;55064;49.636;12.164;2024-02-26T02:36:54;0.53;93.80
68248;SHT30;55064;49.636;12.164;2024-02-26T02:39:20;0.50;93.42
68248;SHT30;55064;49.636;12.164;2024-02-26T02:41:46;0.52;93.50
68248;SHT30;55064;49.636;12.164;2024-02-26T02:44:11;0.46;93.71
68248;SHT30;55064;49.636;12.164;2024-02-26T02:46:37;0.49;94.11
68248;SHT30;55064;49.636;12.164;2024-02-26T02:49:02;0.52;94.26
68248;SHT30;55064;49.636;12.164;2024-02-26T02:51:27;0.50;94.37
68248;SHT30;55064;49.636;12.164;2024-02-26T02:53:53;0.55;94.33
68248;SHT30;55064;49.636;12.164;2024-02-26T02:56:18;0.58;94.08
68248;SHT30;55064;49.636;12.164;2024-02-26T02:58:44;0.59;94.48
68248;SHT30;55064;49.636;12.164;2024-02-26T03:01:09;0.59;94.50
68248;SHT30;55064;49.636;12.164;2024-02-26T03:03:34;0.58;94.27
68248;SHT30;55064;49.636;12.164;2024-02-26T03:06:02;0.50;94.44
68248;SHT30;55064;49.636;12.164;2024-02-26T03:08:27;0.44;94.21
68248;SHT30;55064;49.636;12.164;2024-02-26T03:10:53;0.46;94.66
68248;SHT30;55064;49.636;12.164;2024-02-26T03:13:18;0.45;94.32
68248;SHT30;55064;49.636;12.164;2024-02-26T03:15:43;0.48;94.52
68248;SHT30;55064;49.636;12.164;2024-02-26T03:18:09;0.44;94.88
68248;SHT30;55064;49.636;12.164;2024-02-26T03:20:34;0.46;94.43
68248;SHT30;55064;49.636;12.164;2024-02-26T03:22:59;0.46;95.04
68248;SHT30;55064;49.636;12.164;2024-02-26T03:25:25;0.46;94.62
68248;SHT30;55064;49.636;12.164;2024-02-26T03:27:50;0.49;94.59
68248;SHT30;55064;49.636;12.164;2024-02-26T03:30:16;0.52;94.71
68248;SHT30;55064;49.636;12.164;2024-02-26T03:32:41;0.48;94.40
68248;SHT30;55064;49.636;12.164;2024-02-26T03:35:07;0.46;94.62
68248;SHT30;55064;49.636;12.164;2024-02-26T03:37:33;0.46;94.37
68248;SHT30;55064;49.636;12.164;2024-02-26T03:39:58;0.44;94.40
68248;SHT30;55064;49.636;12.164;2024-02-26T03:42:24;0.41;94.61
68248;SHT30;55064;49.636;12.164;2024-02-26T03:44:49;0.41;94.70
68248;SHT30;55064;49.636;12.164;2024-02-26T03:47:16;0.44;95.07
68248;SHT30;55064;49.636;12.164;2024-02-26T03:49:41;0.39;95.03
68248;SHT30;55064;49.636;12.164;2024-02-26T03:52:06;0.33;95.51
68248;SHT30;55064;49.636;12.164;2024-02-26T03:54:32;0.38;95.31
68248;SHT30;55064;49.636;12.164;2024-02-26T03:56:57;0.38;95.40
68248;SHT30;55064;49.636;12.164;2024-02-26T03:59:23;0.42;95.52
68248;SHT30;55064;49.636;12.164;2024-02-26T04:01:50;0.45;95.33
68248;SHT30;55064;49.636;12.164;2024-02-26T04:04:16;0.45;95.30
68248;SHT30;55064;49.636;12.164;2024-02-26T04:06:46;0.48;95.66
68248;SHT30;55064;49.636;12.164;2024-02-26T04:09:13;0.46;95.27
68248;SHT30;55064;49.636;12.164;2024-02-26T04:11:39;0.39;95.39
68248;SHT30;55064;49.636;12.164;2024-02-26T04:14:04;0.37;95.31
68248;SHT30;55064;49.636;12.164;2024-02-26T04:16:31;0.35;95.63
68248;SHT30;55064;49.636;12.164;2024-02-26T04:18:56;0.31;95.25
68248;SHT30;55064;49.636;12.164;2024-02-26T04:21:21;0.25;95.48
68248;SHT30;55064;49.636;12.164;2024-02-26T04:23:47;0.22;95.45
68248;SHT30;55064;49.636;12.164;2024-02-26T04:26:14;0.21;95.57
68248;SHT30;55064;49.636;12.164;2024-02-26T04:28:39;0.19;95.41
68248;SHT30;55064;49.636;12.164;2024-02-26T04:31:05;0.12;95.26
68248;SHT30;55064;49.636;12.164;2024-02-26T04:33:30;0.14;95.34
68248;SHT30;55064;49.636;12.164;2024-02-26T04:35:58;0.11;95.76
68248;SHT30;55064;49.636;12.164;2024-02-26T04:38:24;0.15;95.45
68248;SHT30;55064;49.636;12.164;2024-02-26T04:40:49;0.11;95.83
68248;SHT30;55064;49.636;12.164;2024-02-26T04:43:14;0.05;96.24
68248;SHT30;55064;49.636;12.164;2024-02-26T04:45:40;0.05;96.52
68248;SHT30;55064;49.636;12.164;2024-02-26T04:48:06;0.07;96.83
68248;SHT30;55064;49.636;12.164;2024-02-26T04:50:31;0.10;96.64
68248;SHT30;55064;49.636;12.164;2024-02-26T04:52:57;0.11;96.75
68248;SHT30;55064;49.636;12.164;2024-02-26T04:55:22;0.12;96.81
68248;SHT30;55064;49.636;12.164;2024-02-26T04:57:48;0.19;96.79
68248;SHT30;55064;49.636;12.164;2024-02-26T05:00:13;0.25;96.84
68248;SHT30;55064;49.636;12.164;2024-02-26T05:02:39;0.25;96.56
68248;SHT30;55064;49.636;12.164;2024-02-26T05:05:05;0.26;96.72
68248;SHT30;55064;49.636;12.164;2024-02-26T05:07:31;0.22;96.35
68248;SHT30;55064;49.636;12.164;2024-02-26T05:09:57;0.18;96.50
68248;SHT30;55064;49.636;12.164;2024-02-26T05:12:22;0.18;96.39
68248;SHT30;55064;49.636;12.164;2024-02-26T05:14:48;0.18;96.63
68248;SHT30;55064;49.636;12.164;2024-02-26T05:17:13;0.19;96.57
68248;SHT30;55064;49.636;12.164;2024-02-26T05:19:38;0.21;97.03
68248;SHT30;55064;49.636;12.164;2024-02-26T05:22:04;0.21;96.78
68248;SHT30;55064;49.636;12.164;2024-02-26T05:24:29;0.19;96.97
68248;SHT30;55064;49.636;12.164;2024-02-26T05:26:55;0.17;96.79
68248;SHT30;55064;49.636;12.164;2024-02-26T05:29:20;0.18;97.15
68248;SHT30;55064;49.636;12.164;2024-02-26T05:31:46;0.17;97.10
68248;SHT30;55064;49.636;12.164;2024-02-26T05:34:11;0.12;96.82
68248;SHT30;55064;49.636;12.164;2024-02-26T05:36:37;0.11;96.54
68248;SHT30;55064;49.636;12.164;2024-02-26T05:39:02;0.07;96.99
68248;SHT30;55064;49.636;12.164;2024-02-26T05:41:29;0.10;97.06
68248;SHT30;55064;49.636;12.164;2024-02-26T05:43:54;0.12;96.85
68248;SHT30;55064;49.636;12.164;2024-02-26T05:46:20;0.15;96.98
68248;SHT30;55064;49.636;12.164;2024-02-26T05:48:47;0.15;96.56
68248;SHT30;55064;49.636;12.164;2024-02-26T05:51:13;0.15;96.97
68248;SHT30;55064;49.636;12.164;2024-02-26T05:53:38;0.19;96.79
68248;SHT30;55064;49.636;12.164;2024-02-26T05:56:04;0.19;97.20
68248;SHT30;55064;49.636;12.164;2024-02-26T05:58:29;0.26;97.18
68248;SHT30;55064;49.636;12.164;2024-02-26T06:00:54;0.31;96.86
68248;SHT30;55064;49.636;12.164;2024-02-26T06:03:20;0.26;96.56
68248;SHT30;55064;49.636;12.164;2024-02-26T06:05:46;0.32;97.05
68248;SHT30;55064;49.636;12.164;2024-02-26T06:08:11;0.28;96.80
68248;SHT30;55064;49.636;12.164;2024-02-26T06:10:39;0.29;96.55
68248;SHT30;55064;49.636;12.164;2024-02-26T06:13:05;0.21;96.75
68248;SHT30;55064;49.636;12.164;2024-02-26T06:15:30;0.22;97.26
68248;SHT30;55064;49.636;12.164;2024-02-26T06:17:56;0.25;97.14
68248;SHT30;55064;49.636;12.164;2024-02-26T06:20:21;0.32;97.28
68248;SHT30;55064;49.636;12.164;2024-02-26T06:22:46;0.33;97.34
68248;SHT30;55064;49.636;12.164;2024-02-26T06:25:12;0.33;97.68
68248;SHT30;55064;49.636;12.164;2024-02-26T06:27:37;0.37;97.42
68248;SHT30;55064;49.636;12.164;2024-02-26T06:30:03;0.33;97.25
68248;SHT30;55064;49.636;12.164;2024-02-26T06:32:28;0.31;97.64
68248;SHT30;55064;49.636;12.164;2024-02-26T06:34:54;0.37;97.59
68248;SHT30;55064;49.636;12.164;2024-02-26T06:37:20;0.39;97.44
68248;SHT30;55064;49.636;12.164;2024-02-26T06:39:45;0.45;97.60
68248;SHT30;55064;49.636;12.164;2024-02-26T06:42:11;0.52;98.09
68248;SHT30;55064;49.636;12.164;2024-02-26T06:44:36;0.67;97.88
68248;SHT30;55064;49.636;12.164;2024-02-26T06:47:02;0.59;97.01
68248;SHT30;55064;49.636;12.164;2024-02-26T06:49:27;0.48;96.98
68248;SHT30;55064;49.636;12.164;2024-02-26T06:51:53;0.41;96.81
68248;SHT30;55064;49.636;12.164;2024-02-26T06:54:19;0.41;97.08
68248;SHT30;55064;49.636;12.164;2024-02-26T06:56:44;0.52;97.06
68248;SHT30;55064;49.636;12.164;2024-02-26T06:59:10;0.55;97.03
68248;SHT30;55064;49.636;12.164;2024-02-26T07:01:35;0.53;97.14
68248;SHT30;55064;49.636;12.164;2024-02-26T07:04:00;0.59;97.27
68248;SHT30;55064;49.636;12.164;2024-02-26T07:06:29;0.63;97.24
68248;SHT30;55064;49.636;12.164;2024-02-26T07:08:54;0.76;97.32
68248;SHT30;55064;49.636;12.164;2024-02-26T07:11:20;0.81;96.78
68248;SHT30;55064;49.636;12.164;2024-02-26T07:13:46;0.81;97.20
68248;SHT30;55064;49.636;12.164;2024-02-26T07:16:12;0.86;97.01
68248;SHT30;55064;49.636;12.164;2024-02-26T07:18:39;0.81;97.13
68248;SHT30;55064;49.636;12.164;2024-02-26T07:21:05;0.96;97.12
68248;SHT30;55064;49.636;12.164;2024-02-26T07:23:31;0.96;97.01
68248;SHT30;55064;49.636;12.164;2024-02-26T07:25:57;1.03;97.13
68248;SHT30;55064;49.636;12.164;2024-02-26T07:28:22;1.11;96.58
68248;SHT30;55064;49.636;12.164;2024-02-26T07:30:48;1.17;96.05
68248;SHT30;55064;49.636;12.164;2024-02-26T07:33:13;1.22;96.30
68248;SHT30;55064;49.636;12.164;2024-02-26T07:35:38;1.38;96.33
68248;SHT30;55064;49.636;12.164;2024-02-26T07:38:04;1.52;95.70
68248;SHT30;55064;49.636;12.164;2024-02-26T07:40:30;1.62;95.70
68248;SHT30;55064;49.636;12.164;2024-02-26T07:42:55;1.70;95.73
68248;SHT30;55064;49.636;12.164;2024-02-26T07:45:21;1.81;95.70
68248;SHT30;55064;49.636;12.164;2024-02-26T07:47:47;1.87;95.54
68248;SHT30;55064;49.636;12.164;2024-02-26T07:50:13;2.00;95.21
68248;SHT30;55064;49.636;12.164;2024-02-26T07:52:39;2.20;95.11
68248;SHT30;55064;49.636;12.164;2024-02-26T07:55:05;2.31;94.68
68248;SHT30;55064;49.636;12.164;2024-02-26T07:57:32;2.46;94.36
68248;SHT30;55064;49.636;12.164;2024-02-26T07:59:58;2.64;93.78
68248;SHT30;55064;49.636;12.164;2024-02-26T08:02:24;2.72;93.43
68248;SHT30;55064;49.636;12.164;2024-02-26T08:04:50;2.84;93.53
68248;SHT30;55064;49.636;12.164;2024-02-26T08:07:15;2.84;93.00
68248;SHT30;55064;49.636;12.164;2024-02-26T08:09:41;2.83;93.02
68248;SHT30;55064;49.636;12.164;2024-02-26T08:12:06;2.84;93.31
68248;SHT30;55064;49.636;12.164;2024-02-26T08:14:32;2.89;93.17
68248;SHT30;55064;49.636;12.164;2024-02-26T08:16:58;2.96;93.09
68248;SHT30;55064;49.636;12.164;2024-02-26T08:19:24;3.00;93.18
68248;SHT30;55064;49.636;12.164;2024-02-26T08:21:49;3.17;93.17
68248;SHT30;55064;49.636;12.164;2024-02-26T08:24:14;3.34;92.65
68248;SHT30;55064;49.636;12.164;2024-02-26T08:26:40;3.56;91.82
68248;SHT30;55064;49.636;12.164;2024-02-26T08:29:05;3.74;91.33
68248;SHT30;55064;49.636;12.164;2024-02-26T08:31:30;3.77;90.72
68248;SHT30;55064;49.636;12.164;2024-02-26T08:33:56;4.00;90.05
68248;SHT30;55064;49.636;12.164;2024-02-26T08:36:21;4.08;89.87
68248;SHT30;55064;49.636;12.164;2024-02-26T08:38:47;3.91;89.28
68248;SHT30;55064;49.636;12.164;2024-02-26T08:41:12;3.87;89.81
68248;SHT30;55064;49.636;12.164;2024-02-26T08:43:38;3.90;89.92
68248;SHT30;55064;49.636;12.164;2024-02-26T08:46:03;3.95;89.39
68248;SHT30;55064;49.636;12.164;2024-02-26T08:48:29;4.10;88.81
68248;SHT30;55064;49.636;12.164;2024-02-26T08:50:54;4.05;88.56
68248;SHT30;55064;49.636;12.164;2024-02-26T08:53:20;4.14;88.29
68248;SHT30;55064;49.636;12.164;2024-02-26T08:55:45;4.17;88.31
68248;SHT30;55064;49.636;12.164;2024-02-26T08:58:11;4.11;88.44
68248;SHT30;55064;49.636;12.164;2024-02-26T09:00:36;4.31;88.48
68248;SHT30;55064;49.636;12.164;2024-02-26T09:03:01;4.50;88.13
68248;SHT30;55064;49.636;12.164;2024-02-26T09:05:27;4.67;87.39
68248;SHT30;55064;49.636;12.164;2024-02-26T09:07:52;4.97;85.84
68248;SHT30;55064;49.636;12.164;2024-02-26T09:10:17;4.97;85.18
68248;SHT30;55064;49.636;12.164;2024-02-26T09:12:43;5.20;85.01
68248;SHT30;55064;49.636;12.164;2024-02-26T09:15:08;5.04;85.45
68248;SHT30;55064;49.636;12.164;2024-02-26T09:17:34;4.91;86.07
68248;SHT30;55064;49.636;12.164;2024-02-26T09:19:59;5.11;85.96
68248;SHT30;55064;49.636;12.164;2024-02-26T09:22:25;5.55;85.36
68248;SHT30;55064;49.636;12.164;2024-02-26T09:24:50;5.69;84.03
68248;SHT30;55064;49.636;12.164;2024-02-26T09:27:17;5.53;83.88
68248;SHT30;55064;49.636;12.164;2024-02-26T09:29:43;5.30;85.04
68248;SHT30;55064;49.636;12.164;2024-02-26T09:32:08;5.18;85.45
68248;SHT30;55064;49.636;12.164;2024-02-26T09:34:33;5.28;85.07
68248;SHT30;55064;49.636;12.164;2024-02-26T09:36:59;5.27;84.61
68248;SHT30;55064;49.636;12.164;2024-02-26T09:39:25;5.38;84.88
68248;SHT30;55064;49.636;12.164;2024-02-26T09:41:51;5.11;85.41
68248;SHT30;55064;49.636;12.164;2024-02-26T09:44:18;5.18;85.02
68248;SHT30;55064;49.636;12.164;2024-02-26T09:46:47;5.07;85.59
68248;SHT30;55064;49.636;12.164;2024-02-26T09:49:13;5.21;85.69
68248;SHT30;55064;49.636;12.164;2024-02-26T09:51:40;5.43;84.93
68248;SHT30;55064;49.636;12.164;2024-02-26T09:54:07;5.34;84.65
68248;SHT30;55064;49.636;12.164;2024-02-26T09:56:34;5.42;84.69
68248;SHT30;55064;49.636;12.164;2024-02-26T09:59:00;5.65;84.53
68248;SHT30;55064;49.636;12.164;2024-02-26T10:01:29;5.51;84.66
68248;SHT30;55064;49.636;12.164;2024-02-26T10:03:59;5.76;84.22
68248;SHT30;55064;49.636;12.164;2024-02-26T10:06:27;5.83;83.65
68248;SHT30;55064;49.636;12.164;2024-02-26T10:08:54;6.01;83.39
68248;SHT30;55064;49.636;12.164;2024-02-26T10:11:20;5.90;83.04
68248;SHT30;55064;49.636;12.164;2024-02-26T10:13:45;6.07;83.51
68248;SHT30;55064;49.636;12.164;2024-02-26T10:16:11;6.13;83.12
68248;SHT30;55064;49.636;12.164;2024-02-26T10:21:11;6.13;82.45
68248;SHT30;55064;49.636;12.164;2024-02-26T10:23:37;6.24;82.49
68248;SHT30;55064;49.636;12.164;2024-02-26T10:26:02;6.29;82.35
68248;SHT30;55064;49.636;12.164;2024-02-26T10:28:29;6.38;82.35
68248;SHT30;55064;49.636;12.164;2024-02-26T10:30:55;5.97;83.16
68248;SHT30;55064;49.636;12.164;2024-02-26T10:33:20;6.06;82.84
68248;SHT30;55064;49.636;12.164;2024-02-26T10:35:46;5.94;82.99
68248;SHT30;55064;49.636;12.164;2024-02-26T10:38:12;6.01;83.61
68248;SHT30;55064;49.636;12.164;2024-02-26T10:40:38;5.90;83.51
68248;SHT30;55064;49.636;12.164;2024-02-26T10:43:03;5.70;84.37
68248;SHT30;55064;49.636;12.164;2024-02-26T10:45:29;5.80;84.61
68248;SHT30;55064;49.636;12.164;2024-02-26T10:47:54;5.80;84.60
68248;SHT30;55064;49.636;12.164;2024-02-26T10:50:19;5.76;84.79
68248;SHT30;55064;49.636;12.164;2024-02-26T10:52:45;5.74;84.48
68248;SHT30;55064;49.636;12.164;2024-02-26T10:55:15;5.98;84.39
68248;SHT30;55064;49.636;12.164;2024-02-26T10:57:44;5.85;84.57
68248;SHT30;55064;49.636;12.164;2024-02-26T11:00:13;6.00;83.56
68248;SHT30;55064;49.636;12.164;2024-02-26T11:02:40;6.08;83.77
68248;SHT30;55064;49.636;12.164;2024-02-26T11:05:06;5.69;84.09
68248;SHT30;55064;49.636;12.164;2024-02-26T11:07:34;5.89;84.24
68248;SHT30;55064;49.636;12.164;2024-02-26T11:10:02;5.74;84.15
68248;SHT30;55064;49.636;12.164;2024-02-26T11:12:29;5.80;84.25
68248;SHT30;55064;49.636;12.164;2024-02-26T11:14:55;5.65;84.46
68248;SHT30;55064;49.636;12.164;2024-02-26T11:17:27;5.76;84.88
68248;SHT30;55064;49.636;12.164;2024-02-26T11:19:57;5.83;84.01
68248;SHT30;55064;49.636;12.164;2024-02-26T11:22:27;5.71;84.47
68248;SHT30;55064;49.636;12.164;2024-02-26T11:24:54;5.80;84.68
68248;SHT30;55064;49.636;12.164;2024-02-26T11:27:25;5.87;84.20
68248;SHT30;55064;49.636;12.164;2024-02-26T11:29:52;5.87;84.25
68248;SHT30;55064;49.636;12.164;2024-02-26T11:32:19;5.81;84.67
68248;SHT30;55064;49.636;12.164;2024-02-26T11:34:44;5.90;84.63
68248;SHT30;55064;49.636;12.164;2024-02-26T11:37:14;5.77;84.91
68248;SHT30;55064;49.636;12.164;2024-02-26T11:39:43;5.94;84.96
68248;SHT30;55064;49.636;12.164;2024-02-26T11:42:13;6.01;84.40
68248;SHT30;55064;49.636;12.164;2024-02-26T11:44:39;5.87;84.28
68248;SHT30;55064;49.636;12.164;2024-02-26T11:47:18;5.97;84.51
68248;SHT30;55064;49.636;12.164;2024-02-26T11:49:43;5.89;84.43
68248;SHT30;55064;49.636;12.164;2024-02-26T11:52:09;5.90;84.46
68248;SHT30;55064;49.636;12.164;2024-02-26T12:00:13;6.13;83.64
68248;SHT30;55064;49.636;12.164;2024-02-26T12:02:52;6.08;83.19
68248;SHT30;55064;49.636;12.164;2024-02-26T12:05:33;5.96;83.36
68248;SHT30;55064;49.636;12.164;2024-02-26T12:08:04;6.13;83.00
68248;SHT30;55064;49.636;12.164;2024-02-26T12:10:35;6.20;83.08
68248;SHT30;55064;49.636;12.164;2024-02-26T12:13:14;6.22;82.79
68248;SHT30;55064;49.636;12.164;2024-02-26T12:15:44;6.39;82.77
68248;SHT30;55064;49.636;12.164;2024-02-26T12:18:15;6.61;82.27
68248;SHT30;55064;49.636;12.164;2024-02-26T12:20:41;6.76;81.32
68248;SHT30;55064;49.636;12.164;2024-02-26T12:23:06;6.59;81.34
68248;SHT30;55064;49.636;12.164;2024-02-26T12:25:33;6.70;81.51
68248;SHT30;55064;49.636;12.164;2024-02-26T12:27:59;6.46;81.98
68248;SHT30;55064;49.636;12.164;2024-02-26T12:30:25;6.44;81.89
68248;SHT30;55064;49.636;12.164;2024-02-26T12:32:52;6.68;81.22
68248;SHT30;55064;49.636;12.164;2024-02-26T12:35:22;6.52;81.35
68248;SHT30;55064;49.636;12.164;2024-02-26T12:37:47;6.44;81.76
68248;SHT30;55064;49.636;12.164;2024-02-26T12:40:13;6.46;81.85
68248;SHT30;55064;49.636;12.164;2024-02-26T12:42:39;6.50;82.28
68248;SHT30;55064;49.636;12.164;2024-02-26T12:45:06;6.52;82.24
68248;SHT30;55064;49.636;12.164;2024-02-26T12:47:44;6.29;83.03
68248;SHT30;55064;49.636;12.164;2024-02-26T12:50:11;6.45;83.16
68248;SHT30;55064;49.636;12.164;2024-02-26T12:52:44;6.55;83.27
68248;SHT30;55064;49.636;12.164;2024-02-26T12:55:14;6.50;83.29
68248;SHT30;55064;49.636;12.164;2024-02-26T12:57:41;6.44;83.14
68248;SHT30;55064;49.636;12.164;2024-02-26T13:00:11;6.31;83.21
68248;SHT30;55064;49.636;12.164;2024-02-26T13:02:38;6.20;83.66
68248;SHT30;55064;49.636;12.164;2024-02-26T13:05:06;6.13;83.95
68248;SHT30;55064;49.636;12.164;2024-02-26T13:07:32;6.22;84.25
68248;SHT30;55064;49.636;12.164;2024-02-26T13:09:58;6.22;83.72
68248;SHT30;55064;49.636;12.164;2024-02-26T13:12:24;6.24;84.09
68248;SHT30;55064;49.636;12.164;2024-02-26T13:15:00;6.31;83.39
68248;SHT30;55064;49.636;12.164;2024-02-26T13:17:25;6.41;83.14
68248;SHT30;55064;49.636;12.164;2024-02-26T13:19:53;6.46;82.84
68248;SHT30;55064;49.636;12.164;2024-02-26T13:22:20;6.48;82.69
68248;SHT30;55064;49.636;12.164;2024-02-26T13:24:53;6.48;82.51
68248;SHT30;55064;49.636;12.164;2024-02-26T13:27:25;6.45;82.50
68248;SHT30;55064;49.636;12.164;2024-02-26T13:30:11;6.65;82.45
68248;SHT30;55064;49.636;12.164;2024-02-26T13:32:39;6.83;81.83
68248;SHT30;55064;49.636;12.164;2024-02-26T13:35:13;6.91;81.36
68248;SHT30;55064;49.636;12.164;2024-02-26T13:37:40;6.94;80.98
68248;SHT30;55064;49.636;12.164;2024-02-26T13:40:11;6.99;80.63
68248;SHT30;55064;49.636;12.164;2024-02-26T13:42:38;6.83;80.82
68248;SHT30;55064;49.636;12.164;2024-02-26T13:45:04;6.87;80.88
68248;SHT30;55064;49.636;12.164;2024-02-26T13:47:35;6.96;80.64
68248;SHT30;55064;49.636;12.164;2024-02-26T13:50:01;7.04;80.88
68248;SHT30;55064;49.636;12.164;2024-02-26T13:52:27;7.22;80.91
68248;SHT30;55064;49.636;12.164;2024-02-26T13:54:52;7.35;80.02
68248;SHT30;55064;49.636;12.164;2024-02-26T13:57:21;7.38;80.08
68248;SHT30;55064;49.636;12.164;2024-02-26T13:59:46;7.14;80.41
68248;SHT30;55064;49.636;12.164;2024-02-26T14:02:12;7.27;80.14
68248;SHT30;55064;49.636;12.164;2024-02-26T14:04:38;7.34;79.46
68248;SHT30;55064;49.636;12.164;2024-02-26T14:07:04;7.55;79.91
68248;SHT30;55064;49.636;12.164;2024-02-26T14:09:30;7.66;79.14
68248;SHT30;55064;49.636;12.164;2024-02-26T14:11:55;7.49;78.91
68248;SHT30;55064;49.636;12.164;2024-02-26T14:14:20;7.56;79.23
68248;SHT30;55064;49.636;12.164;2024-02-26T14:16:46;7.77;79.51
68248;SHT30;55064;49.636;12.164;2024-02-26T14:19:11;7.83;78.77
68248;SHT30;55064;49.636;12.164;2024-02-26T14:21:37;7.54;78.27
68248;SHT30;55064;49.636;12.164;2024-02-26T14:24:02;7.39;78.44
68248;SHT30;55064;49.636;12.164;2024-02-26T14:26:29;7.18;79.91
68248;SHT30;55064;49.636;12.164;2024-02-26T14:28:54;7.03;80.19
68248;SHT30;55064;49.636;12.164;2024-02-26T14:31:19;6.94;80.08
68248;SHT30;55064;49.636;12.164;2024-02-26T14:33:45;7.05;79.83
68248;SHT30;55064;49.636;12.164;2024-02-26T14:36:11;6.90;80.27
68248;SHT30;55064;49.636;12.164;2024-02-26T14:38:37;6.84;80.60
68248;SHT30;55064;49.636;12.164;2024-02-26T14:41:02;6.81;80.81
68248;SHT30;55064;49.636;12.164;2024-02-26T14:43:29;6.80;81.02
68248;SHT30;55064;49.636;12.164;2024-02-26T14:45:55;6.89;80.62
68248;SHT30;55064;49.636;12.164;2024-02-26T14:48:21;6.76;80.88
68248;SHT30;55064;49.636;12.164;2024-02-26T14:50:46;6.80;81.42
68248;SHT30;55064;49.636;12.164;2024-02-26T14:53:11;6.90;81.41
68248;SHT30;55064;49.636;12.164;2024-02-26T14:55:37;7.03;81.14
68248;SHT30;55064;49.636;12.164;2024-02-26T14:58:03;6.90;81.25
68248;SHT30;55064;49.636;12.164;2024-02-26T15:00:28;6.61;81.64
68248;SHT30;55064;49.636;12.164;2024-02-26T15:02:54;6.63;82.02
68248;SHT30;55064;49.636;12.164;2024-02-26T15:05:20;6.68;81.64
68248;SHT30;55064;49.636;12.164;2024-02-26T15:07:45;6.61;81.72
68248;SHT30;55064;49.636;12.164;2024-02-26T15:10:10;6.72;81.76
68248;SHT30;55064;49.636;12.164;2024-02-26T15:12:36;6.65;81.68
68248;SHT30;55064;49.636;12.164;2024-02-26T15:15:02;6.48;81.92
68248;SHT30;55064;49.636;12.164;2024-02-26T15:17:27;6.52;82.42
68248;SHT30;55064;49.636;12.164;2024-02-26T15:19:53;6.52;82.13
68248;SHT30;55064;49.636;12.164;2024-02-26T15:22:19;6.32;82.39
68248;SHT30;55064;49.636;12.164;2024-02-26T15:24:44;6.34;82.90
68248;SHT30;55064;49.636;12.164;2024-02-26T15:27:12;6.25;83.11
68248;SHT30;55064;49.636;12.164;2024-02-26T15:29:37;6.24;83.00
68248;SHT30;55064;49.636;12.164;2024-02-26T15:32:03;6.29;82.88